Terminal Aerodrome Forecast
Issued by NWS Lake Charles, LA

Home | Current Version | Previous Version | Text Only | Print | Product List | Glossary On
Versions: 1 2 3 4 5 6 7 8 9 10 11 12 13 14 15
000
FTUS44 KLCH 012300 RRA
TAFAEX
TAF
KAEX 012338Z 0200/0224 VRB05KT P6SM VCSH BKN060
      TEMPO 0208/0212 4SM BR SCT025
     FM021500 VRB03KT P6SM BKN015=

USA.gov is the U.S. government's official web portal to all federal, state and local government web resources and services.